Time;durP1;ratioP1;P1;durP2;ratioP2;P2;SDS_P1;SDS_P2;PMS_P1;PMS_P2;Temp;Humidity;BMP_temperature;BMP_pressure;BME280_temperature;BME280_humidity;BME280_pressure;Samples;Min_cycle;Max_cycle;Signal;HPM_P1;HPM_P2
2022/04/01 00:00:22;;;;;;;25.60;7.05;;;17.00;83.60;;;;;;5268991;28;20028;-87
2022/04/01 00:02:53;;;;;;;27.75;7.18;;;17.20;82.20;;;;;;5269099;28;20380;-84
2022/04/01 00:05:24;;;;;;;32.92;8.35;;;17.30;80.60;;;;;;5269039;28;20103;-84
2022/04/01 00:07:55;;;;;;;37.80;7.18;;;17.30;79.70;;;;;;5267689;28;20480;-84
2022/04/01 00:10:27;;;;;;;29.42;6.38;;;17.20;79.90;;;;;;5267572;28;20033;-86
2022/04/01 00:12:58;;;;;;;35.55;7.65;;;17.20;79.60;;;;;;5268896;28;20368;-87
2022/04/01 00:15:29;;;;;;;35.63;7.10;;;17.30;78.80;;;;;;5267590;28;20505;-84
2022/04/01 00:18:01;;;;;;;33.10;6.78;;;17.20;80.30;;;;;;5271411;28;20035;-88
2022/04/01 00:20:31;;;;;;;31.23;6.28;;;17.10;80.10;;;;;;5271492;28;20101;-84
2022/04/01 00:23:02;;;;;;;42.60;7.75;;;17.20;79.50;;;;;;5271448;28;20499;-84
2022/04/01 00:25:33;;;;;;;35.03;6.40;;;16.90;81.60;;;;;;5272333;28;20391;-84
2022/04/01 00:28:04;;;;;;;34.08;5.28;;;16.90;82.50;;;;;;5271262;28;20035;-82
2022/04/01 00:30:36;;;;;;;28.60;6.40;;;16.70;83.90;;;;;;5270988;28;20056;-82
2022/04/01 00:33:08;;;;;;;25.45;6.60;;;16.70;85.00;;;;;;5272542;28;20490;-86
2022/04/01 00:35:39;;;;;;;32.10;6.18;;;16.60;85.80;;;;;;5272468;28;20028;-83
2022/04/01 00:38:10;;;;;;;33.17;6.63;;;16.60;87.00;;;;;;5272453;28;20082;-83
2022/04/01 00:40:41;;;;;;;40.03;6.60;;;16.40;88.70;;;;;;5272371;28;20027;-83
2022/04/01 00:43:12;;;;;;;32.88;6.70;;;16.40;89.30;;;;;;5271108;28;20016;-84
2022/04/01 00:45:42;;;;;;;32.88;6.93;;;16.30;90.90;;;;;;5272316;28;20035;-83
2022/04/01 00:48:13;;;;;;;27.63;6.43;;;16.20;91.60;;;;;;5271020;28;20629;-82
2022/04/01 00:50:44;;;;;;;28.88;6.70;;;16.30;91.40;;;;;;5272178;28;20032;-84
2022/04/01 00:53:18;;;;;;;33.60;5.85;;;16.10;92.50;;;;;;5270929;28;20024;-84
2022/04/01 00:55:50;;;;;;;30.38;6.65;;;16.40;90.30;;;;;;5270760;28;20035;-84
2022/04/01 00:58:22;;;;;;;31.23;6.45;;;16.30;90.60;;;;;;5272188;28;20584;-83
2022/04/01 01:00:53;;;;;;;32.13;6.65;;;16.40;90.00;;;;;;5270546;28;20043;-83
2022/04/01 01:03:24;;;;;;;34.85;6.45;;;16.50;89.20;;;;;;5271905;28;20107;-83
2022/04/01 01:05:57;;;;;;;41.20;7.78;;;16.50;89.20;;;;;;5271966;28;20108;-85
2022/04/01 01:08:28;;;;;;;36.05;7.28;;;16.30;90.80;;;;;;5271904;28;20073;-83
2022/04/01 01:11:01;;;;;;;39.72;7.40;;;16.40;90.20;;;;;;5271951;28;20486;-84
2022/04/01 01:13:32;;;;;;;37.55;7.93;;;16.30;91.40;;;;;;5271706;28;20424;-84
2022/04/01 01:16:03;;;;;;;41.45;6.63;;;16.10;93.10;;;;;;5271815;28;20466;-84
2022/04/01 01:18:34;;;;;;;41.22;7.70;;;16.20;91.40;;;;;;5271792;28;20031;-84
2022/04/01 01:21:09;;;;;;;33.03;7.38;;;16.40;89.70;;;;;;5271835;28;20016;-85
2022/04/01 01:23:41;;;;;;;28.15;6.00;;;16.10;92.90;;;;;;5272201;28;20016;-85
2022/04/01 01:26:12;;;;;;;27.92;6.38;;;16.10;93.20;;;;;;5271502;28;20028;-85
2022/04/01 01:28:43;;;;;;;40.22;6.65;;;16.30;88.90;;;;;;5271433;28;20058;-83
2022/04/01 01:31:14;;;;;;;40.22;6.78;;;16.70;85.20;;;;;;5269777;28;20121;-83
2022/04/01 01:33:45;;;;;;;33.30;6.63;;;16.60;86.10;;;;;;5271270;28;20051;-84
2022/04/01 01:36:16;;;;;;;33.17;6.53;;;16.40;87.00;;;;;;5270042;28;20501;-84
2022/04/01 01:38:47;;;;;;;41.25;6.82;;;16.50;86.20;;;;;;5271240;28;20028;-84
2022/04/01 01:41:18;;;;;;;40.17;6.90;;;16.60;84.00;;;;;;5269980;28;20030;-82
2022/04/01 01:43:48;;;;;;;33.22;6.03;;;16.60;84.40;;;;;;5271164;28;20032;-84
2022/04/01 01:46:19;;;;;;;42.08;6.30;;;16.50;85.30;;;;;;5271489;28;20472;-83
2022/04/01 01:48:50;;;;;;;35.90;5.80;;;16.60;83.80;;;;;;5271040;28;20035;-82
2022/04/01 01:56:59;;;;;;;38.72;6.32;;;16.40;86.30;;;;;;5271164;28;20077;-83
2022/04/01 01:59:30;;;;;;;35.15;6.53;;;16.60;83.50;;;;;;5270640;28;20111;-82
2022/04/01 02:02:05;;;;;;;39.58;5.55;;;16.70;81.20;;;;;;5270728;28;20099;-83
2022/04/01 02:04:38;;;;;;;37.67;6.82;;;16.70;80.70;;;;;;5270732;28;20069;-81
2022/04/01 02:07:10;;;;;;;28.92;6.43;;;16.80;80.40;;;;;;5269407;28;20031;-80
2022/04/01 02:09:43;;;;;;;32.63;6.25;;;16.80;80.10;;;;;;5270587;28;20054;-81
2022/04/01 02:12:17;;;;;;;36.33;7.35;;;16.80;80.00;;;;;;5270550;28;20067;-83
2022/04/01 02:14:48;;;;;;;46.60;6.50;;;16.80;79.70;;;;;;5270513;28;20020;-85
2022/04/01 02:17:19;;;;;;;39.85;6.50;;;16.60;80.90;;;;;;5270456;28;20054;-83
2022/04/01 02:19:50;;;;;;;37.15;5.85;;;16.70;80.00;;;;;;5270462;28;20487;-83
2022/04/01 02:22:21;;;;;;;38.70;7.57;;;16.70;80.00;;;;;;5270331;28;20390;-83
2022/04/01 02:24:53;;;;;;;33.60;6.68;;;16.80;78.90;;;;;;5270328;28;20020;-83
2022/04/01 02:27:25;;;;;;;45.63;7.88;;;16.80;78.30;;;;;;5270187;28;20028;-89
2022/04/01 02:29:57;;;;;;;43.08;8.68;;;17.00;76.80;;;;;;5268671;28;20036;-83
2022/04/01 02:32:27;;;;;;;36.25;6.82;;;16.80;77.90;;;;;;5270258;28;20027;-82
2022/04/01 02:34:58;;;;;;;40.55;7.80;;;16.70;78.30;;;;;;5270151;28;20495;-88
2022/04/01 02:37:29;;;;;;;33.67;6.80;;;16.90;77.00;;;;;;5268877;28;20115;-83
2022/04/01 02:40:01;;;;;;;52.83;7.35;;;16.80;77.00;;;;;;5269528;28;20023;-84
2022/04/01 02:42:32;;;;;;;32.78;5.50;;;16.70;78.40;;;;;;5269966;28;20103;-80
2022/04/01 02:45:03;;;;;;;41.92;6.22;;;16.90;75.90;;;;;;5269962;28;20027;-81
2022/04/01 02:47:34;;;;;;;51.95;7.32;;;16.80;75.90;;;;;;5269859;28;20111;-82
2022/04/01 02:50:06;;;;;;;29.85;5.68;;;17.10;73.40;;;;;;5269928;28;20110;-82
2022/04/01 02:52:36;;;;;;;36.78;7.22;;;16.90;75.00;;;;;;5268654;28;20081;-86
2022/04/01 02:55:08;;;;;;;45.28;7.38;;;17.00;74.00;;;;;;5269805;28;20016;-85
2022/04/01 02:57:39;;;;;;;31.52;6.72;;;17.20;72.20;;;;;;5269771;28;20077;-85
2022/04/01 03:00:10;;;;;;;36.88;6.25;;;17.00;73.10;;;;;;5269783;28;20449;-88
2022/04/01 03:02:41;;;;;;;48.20;7.47;;;17.50;68.40;;;;;;5268792;28;20086;-89
2022/04/01 03:05:12;;;;;;;49.30;7.88;;;17.40;68.30;;;;;;5269721;28;20048;-81
2022/04/01 03:07:44;;;;;;;46.58;7.07;;;17.20;70.00;;;;;;5269648;28;20020;-90
2022/04/01 03:10:15;;;;;;;34.75;6.55;;;17.30;68.80;;;;;;5268245;28;20036;-90
2022/04/01 03:12:46;;;;;;;35.88;6.18;;;17.50;66.40;;;;;;5269625;28;20398;-89
2022/04/01 03:15:17;;;;;;;44.60;7.32;;;17.30;67.50;;;;;;5269575;28;20515;-91
2022/04/01 03:17:48;;;;;;;43.95;6.25;;;17.70;65.00;;;;;;5268270;28;20093;-88
2022/04/01 03:20:19;;;;;;;33.75;5.97;;;17.50;66.20;;;;;;5268200;28;20036;-82
2022/04/01 03:22:53;;;;;;;48.65;6.43;;;17.40;66.30;;;;;;5271502;28;20069;-87
2022/04/01 03:25:23;;;;;;;42.40;6.90;;;17.30;67.00;;;;;;5270703;28;20047;-90
2022/04/01 03:27:54;;;;;;;46.42;6.35;;;17.40;65.90;;;;;;5269202;28;20020;-87
2022/04/01 03:30:25;;;;;;;34.35;6.32;;;17.60;64.00;;;;;;5269601;28;20044;-91
2022/04/01 03:32:56;;;;;;;46.67;6.75;;;17.30;65.90;;;;;;5269505;28;20418;-89
2022/04/01 03:35:27;;;;;;;50.80;7.47;;;17.60;63.70;;;;;;5271170;28;20039;-90
2022/04/01 03:37:59;;;;;;;39.97;7.15;;;17.30;65.60;;;;;;5272471;28;20467;-88
2022/04/01 03:40:31;;;;;;;40.70;7.60;;;17.10;68.40;;;;;;5270714;28;20027;-86
2022/04/01 03:43:02;;;;;;;44.65;6.63;;;17.60;60.30;;;;;;5269889;28;20046;-84
2022/04/01 03:45:34;;;;;;;39.83;6.72;;;17.70;61.50;;;;;;5270658;28;20086;-86
2022/04/01 03:48:20;;;;;;;47.38;7.15;;;18.10;57.50;;;;;;5269412;28;20031;-87
2022/04/01 03:50:56;;;;;;;47.03;6.82;;;18.30;55.90;;;;;;5267823;28;20066;-85
2022/04/01 03:53:32;;;;;;;44.75;6.10;;;18.30;54.80;;;;;;5273278;28;20020;-89
2022/04/01 03:56:06;;;;;;;36.05;6.30;;;18.60;53.60;;;;;;5273158;28;20051;-84
2022/04/01 03:58:37;;;;;;;45.78;6.60;;;18.50;53.70;;;;;;5273404;28;20031;-86
2022/04/01 04:01:11;;;;;;;46.47;7.15;;;19.00;52.30;;;;;;5272330;28;20360;-88
2022/04/01 04:03:45;;;;;;;33.67;6.72;;;19.10;51.10;;;;;;5271901;28;20032;-84
2022/04/01 04:06:17;;;;;;;33.92;6.00;;;19.10;51.20;;;;;;5273126;28;20023;-84
2022/04/01 04:08:50;;;;;;;38.22;7.20;;;19.10;51.10;;;;;;5273208;28;20039;-85
2022/04/01 04:11:24;;;;;;;47.97;6.47;;;18.90;52.10;;;;;;5272941;28;20028;-84
2022/04/01 04:13:56;;;;;;;43.53;7.78;;;18.80;52.70;;;;;;5272991;28;20020;-83
2022/04/01 04:16:36;;;;;;;45.17;6.95;;;18.60;53.50;;;;;;5273027;28;20031;-87
2022/04/01 04:19:08;;;;;;;39.03;7.05;;;18.70;53.40;;;;;;5272947;28;20094;-84
2022/04/01 04:21:53;;;;;;;40.17;7.75;;;18.40;54.80;;;;;;5272846;28;20028;-86
2022/04/01 04:24:30;;;;;;;48.25;7.53;;;18.60;54.20;;;;;;5273213;28;20051;-84
2022/04/01 04:27:12;;;;;;;37.80;6.22;;;18.60;54.00;;;;;;5272831;28;20051;-84
2022/04/01 04:29:49;;;;;;;45.30;7.05;;;18.80;52.90;;;;;;5272619;28;20028;-92
2022/04/01 04:32:45;;;;;;;41.15;6.68;;;18.90;51.70;;;;;;5271464;28;20123;-84
2022/04/01 04:35:20;;;;;;;40.83;6.18;;;19.10;51.10;;;;;;5272093;28;20027;-93
2022/04/01 04:37:56;;;;;;;37.95;6.05;;;18.90;51.80;;;;;;5272816;28;20024;-84
2022/04/01 04:40:28;;;;;;;47.58;6.80;;;19.10;51.00;;;;;;5273356;28;20385;-84
2022/04/01 04:43:01;;;;;;;35.00;6.25;;;19.00;51.60;;;;;;5271227;28;20032;-84
2022/04/01 04:45:32;;;;;;;40.58;7.90;;;19.00;51.50;;;;;;5273374;28;20051;-90
2022/04/01 04:48:04;;;;;;;50.33;7.40;;;18.70;53.80;;;;;;5272928;28;20115;-93
2022/04/01 04:50:36;;;;;;;44.63;7.60;;;18.80;53.00;;;;;;5271852;28;20066;-92
2022/04/01 04:53:07;;;;;;;39.33;7.07;;;19.10;52.20;;;;;;5272045;28;20498;-91
2022/04/01 04:55:39;;;;;;;44.45;7.63;;;19.00;53.00;;;;;;5272317;28;20056;-83
2022/04/01 04:58:10;;;;;;;35.63;6.82;;;19.10;51.80;;;;;;5271255;28;20028;-81
2022/04/01 05:00:45;;;;;;;41.80;6.97;;;19.00;53.10;;;;;;5270794;28;20118;-87
2022/04/01 05:03:46;;;;;;;54.75;8.93;;;19.00;52.90;;;;;;5271898;28;20055;-86
2022/04/01 05:06:25;;;;;;;45.83;7.78;;;18.90;53.60;;;;;;5270710;28;20020;-83
2022/04/01 05:09:25;;;;;;;53.58;7.88;;;19.00;53.60;;;;;;5271958;28;20038;-83
2022/04/01 05:12:23;;;;;;;48.40;7.72;;;19.10;53.10;;;;;;5270603;28;20032;-89
2022/04/01 05:15:09;;;;;;;51.50;8.73;;;19.10;52.50;;;;;;5272123;28;20020;-87
2022/04/01 05:17:59;;;;;;;45.97;7.72;;;19.20;52.50;;;;;;5271994;28;20417;-84
2022/04/01 05:20:37;;;;;;;47.17;7.47;;;19.10;53.00;;;;;;5270406;28;20024;-86
2022/04/01 05:23:16;;;;;;;51.00;7.03;;;19.10;53.40;;;;;;5271737;28;20375;-87
2022/04/01 05:25:54;;;;;;;34.35;6.05;;;19.20;52.50;;;;;;5271665;28;20020;-86
2022/04/01 05:28:30;;;;;;;50.85;6.70;;;19.40;51.00;;;;;;5271731;28;20414;-88
2022/04/01 05:31:20;;;;;;;42.92;7.00;;;19.40;50.10;;;;;;5269888;28;20094;-84
2022/04/01 05:34:31;;;;;;;49.63;6.73;;;19.40;51.00;;;;;;5271397;28;20103;-85
2022/04/01 05:37:02;;;;;;;52.63;6.88;;;19.40;50.30;;;;;;5271392;28;20093;-85
2022/04/01 05:39:35;;;;;;;47.55;7.70;;;19.70;49.10;;;;;;5270158;28;20025;-85
2022/04/01 05:42:07;;;;;;;50.95;7.28;;;19.60;50.20;;;;;;5269978;28;20044;-86
2022/04/01 05:44:40;;;;;;;48.30;6.97;;;19.70;49.00;;;;;;5271321;28;20104;-83
2022/04/01 05:47:12;;;;;;;41.00;7.03;;;19.70;50.50;;;;;;5271316;28;20034;-84
2022/04/01 05:49:45;;;;;;;48.40;8.32;;;19.70;49.90;;;;;;5271749;28;20051;-88
2022/04/01 05:52:16;;;;;;;46.10;6.80;;;19.80;49.50;;;;;;5271198;28;20390;-84
2022/04/01 05:54:49;;;;;;;38.20;6.85;;;19.90;49.20;;;;;;5271046;28;20098;-80
2022/04/01 05:57:20;;;;;;;43.92;8.13;;;19.90;50.20;;;;;;5270770;28;20054;-91
2022/04/01 05:59:53;;;;;;;40.67;8.40;;;20.00;48.70;;;;;;5270931;28;20028;-87
2022/04/01 06:02:53;;;;;;;47.95;9.00;;;20.00;48.90;;;;;;5271237;28;20031;-83
2022/04/01 06:05:44;;;;;;;50.00;8.52;;;20.00;49.10;;;;;;5269418;28;20028;-88
2022/04/01 06:08:34;;;;;;;44.95;6.72;;;20.10;48.20;;;;;;5270905;28;20031;-88
2022/04/01 06:11:11;;;;;;;39.05;6.55;;;20.40;46.80;;;;;;5270497;28;20039;-82
2022/04/01 06:14:05;;;;;;;40.67;6.90;;;20.30;46.60;;;;;;5270487;28;20468;-83
2022/04/01 06:16:56;;;;;;;43.42;6.63;;;20.60;46.10;;;;;;5270317;28;20038;-88
2022/04/01 06:19:50;;;;;;;34.72;5.95;;;20.80;45.30;;;;;;5269110;28;20020;-85
2022/04/01 06:22:22;;;;;;;40.50;6.88;;;20.80;45.10;;;;;;5270449;28;20729;-81
2022/04/01 06:24:58;;;;;;;46.58;8.20;;;20.90;44.80;;;;;;5270372;28;20081;-82
2022/04/01 06:27:41;;;;;;;47.63;7.63;;;21.10;44.60;;;;;;5270190;28;20518;-82
2022/04/01 06:30:14;;;;;;;41.30;7.80;;;21.10;44.60;;;;;;5269935;28;20048;-86
2022/04/01 06:32:53;;;;;;;47.25;8.00;;;21.20;44.60;;;;;;5270291;28;20028;-88
2022/04/01 06:35:27;;;;;;;43.33;7.35;;;21.20;44.00;;;;;;5270258;28;20024;-89
2022/04/01 06:38:12;;;;;;;43.63;7.18;;;21.20;43.90;;;;;;5268839;28;20482;-84
2022/04/01 06:40:56;;;;;;;43.78;8.07;;;21.60;43.50;;;;;;5270137;28;20024;-88
2022/04/01 06:43:27;;;;;;;40.58;6.85;;;21.80;43.80;;;;;;5268832;28;20074;-83
2022/04/01 06:45:58;;;;;;;38.80;7.38;;;22.00;42.60;;;;;;5270404;28;20407;-82
2022/04/01 06:48:30;;;;;;;52.03;7.85;;;21.90;41.50;;;;;;5269916;28;20024;-87
2022/04/01 06:51:00;;;;;;;42.25;7.18;;;22.10;42.00;;;;;;5270136;28;20111;-82
2022/04/01 06:53:34;;;;;;;39.33;7.00;;;22.10;41.10;;;;;;5270153;28;20527;-84
2022/04/01 06:56:05;;;;;;;39.63;6.85;;;22.00;41.00;;;;;;5268539;28;20024;-88
2022/04/01 06:58:36;;;;;;;44.85;7.50;;;22.20;41.20;;;;;;5269691;28;20107;-87
2022/04/01 07:01:07;;;;;;;38.65;6.45;;;22.30;40.90;;;;;;5269820;28;20111;-86
2022/04/01 07:03:39;;;;;;;36.17;6.45;;;22.30;40.20;;;;;;5269700;28;20024;-87
2022/04/01 07:06:09;;;;;;;51.00;7.68;;;22.60;40.20;;;;;;5269584;28;20031;-84
2022/04/01 07:08:41;;;;;;;46.17;7.53;;;22.70;40.30;;;;;;5269904;28;20024;-81
2022/04/01 07:11:12;;;;;;;37.67;6.97;;;22.90;39.60;;;;;;5269756;28;20497;-90
2022/04/01 07:13:43;;;;;;;37.33;6.57;;;22.80;39.20;;;;;;5269443;28;20028;-88
2022/04/01 07:16:14;;;;;;;41.47;7.22;;;23.00;39.30;;;;;;5269404;28;20024;-81
2022/04/01 07:18:45;;;;;;;43.05;8.15;;;23.00;39.20;;;;;;5269457;28;20036;-85
2022/04/01 07:21:15;;;;;;;37.55;6.18;;;23.00;38.30;;;;;;5269826;28;20349;-84
2022/04/01 07:23:46;;;;;;;43.95;7.20;;;22.90;38.60;;;;;;5269457;28;20049;-88
2022/04/01 07:26:17;;;;;;;40.58;8.13;;;22.80;38.80;;;;;;5267893;28;20029;-86
2022/04/01 07:28:48;;;;;;;40.50;7.03;;;22.70;38.60;;;;;;5269206;28;20028;-85
2022/04/01 07:34:08;;;;;;;41.92;6.70;;;22.90;37.40;;;;;;5269968;28;20035;-90
2022/04/01 07:36:39;;;;;;;45.72;7.53;;;23.10;37.70;;;;;;5269251;28;20103;-83
2022/04/01 07:39:10;;;;;;;49.45;7.43;;;23.10;37.00;;;;;;5269553;28;20107;-85
2022/04/01 07:41:41;;;;;;;40.22;6.88;;;23.20;37.20;;;;;;5268001;28;20085;-89
2022/04/01 07:44:12;;;;;;;39.88;7.63;;;23.20;37.90;;;;;;5269513;28;20063;-77
2022/04/01 07:46:43;;;;;;;41.88;7.70;;;23.20;36.90;;;;;;5268428;28;20064;-85
2022/04/01 07:49:14;;;;;;;46.95;6.95;;;23.40;38.10;;;;;;5269115;28;20050;-87
2022/04/01 07:51:45;;;;;;;48.00;7.28;;;23.50;37.20;;;;;;5268950;28;20036;-83
2022/04/01 07:54:16;;;;;;;48.88;8.30;;;23.70;36.70;;;;;;5269072;28;20066;-82
2022/04/01 07:56:47;;;;;;;35.78;7.18;;;23.70;36.00;;;;;;5269062;28;20028;-88
2022/04/01 07:59:20;;;;;;;40.40;8.40;;;23.90;36.10;;;;;;5269019;28;20024;-80
2022/04/01 08:01:51;;;;;;;40.75;7.07;;;23.80;36.00;;;;;;5269010;28;20483;-80
2022/04/01 08:04:22;;;;;;;54.65;9.15;;;24.00;35.80;;;;;;5269110;28;20027;-78
2022/04/01 08:06:57;;;;;;;35.78;6.68;;;23.80;35.70;;;;;;5268934;28;20028;-78
2022/04/01 08:09:28;;;;;;;39.95;7.40;;;23.90;35.90;;;;;;5268694;28;20017;-79
2022/04/01 08:12:00;;;;;;;46.45;6.93;;;23.80;35.40;;;;;;5269090;28;20040;-84
2022/04/01 08:14:33;;;;;;;38.58;8.20;;;24.10;35.30;;;;;;5269061;28;20435;-82
2022/04/01 08:17:05;;;;;;;41.47;7.35;;;24.10;34.80;;;;;;5268917;28;20150;-82
2022/04/01 08:19:36;;;;;;;44.33;6.60;;;23.90;35.50;;;;;;5269051;28;20103;-86
2022/04/01 08:22:07;;;;;;;36.28;7.05;;;23.90;36.50;;;;;;5269579;28;20138;-87
2022/04/01 08:24:38;;;;;;;30.33;5.97;;;23.70;36.20;;;;;;5269223;28;20554;-82
2022/04/01 08:27:09;;;;;;;46.30;7.38;;;23.70;36.70;;;;;;5268603;28;20105;-82
2022/04/01 08:29:41;;;;;;;40.83;7.40;;;23.80;37.30;;;;;;5268491;28;20024;-80
2022/04/01 08:32:12;;;;;;;37.00;7.03;;;23.70;36.30;;;;;;5269106;28;20375;-82
2022/04/01 08:34:43;;;;;;;35.03;6.88;;;23.90;37.30;;;;;;5269108;28;20024;-81
2022/04/01 08:37:14;;;;;;;38.38;6.72;;;23.80;35.80;;;;;;5268574;28;20032;-84
2022/04/01 08:39:47;;;;;;;38.85;7.38;;;24.10;35.50;;;;;;5272500;28;20027;-86
2022/04/01 08:42:18;;;;;;;40.00;6.93;;;24.10;36.20;;;;;;5272559;28;20055;-83
2022/04/01 08:44:49;;;;;;;34.40;7.00;;;23.60;35.60;;;;;;5272497;28;20097;-84
2022/04/01 08:47:20;;;;;;;32.42;7.13;;;23.70;36.40;;;;;;5271068;28;20028;-82
2022/04/01 08:49:54;;;;;;;44.00;7.10;;;23.80;36.70;;;;;;5272654;28;20027;-83
2022/04/01 08:52:25;;;;;;;42.55;7.22;;;23.70;36.60;;;;;;5272415;28;20036;-84
2022/04/01 08:55:06;;;;;;;50.95;6.32;;;23.80;36.10;;;;;;5272234;28;20031;-81
2022/04/01 08:57:42;;;;;;;37.30;6.70;;;23.80;35.50;;;;;;5272107;28;20390;-82
2022/04/01 09:00:15;;;;;;;43.67;6.40;;;24.00;36.30;;;;;;5272132;28;20405;-83
2022/04/01 09:02:59;;;;;;;45.75;8.38;;;24.00;35.60;;;;;;5270774;28;20086;-86
2022/04/01 09:05:30;;;;;;;40.28;7.43;;;23.60;36.30;;;;;;5272623;28;20059;-82
2022/04/01 09:08:03;;;;;;;33.30;6.60;;;23.70;37.50;;;;;;5271735;28;20480;-83
2022/04/01 09:10:51;;;;;;;42.80;7.55;;;23.90;38.80;;;;;;5272111;28;20054;-82
2022/04/01 09:13:24;;;;;;;41.00;6.55;;;23.60;37.20;;;;;;5271802;28;20486;-82
2022/04/01 09:15:56;;;;;;;40.47;6.32;;;23.40;37.90;;;;;;5271772;28;20103;-80
2022/04/01 09:18:34;;;;;;;40.45;7.20;;;23.70;36.90;;;;;;5270481;28;20510;-82
2022/04/01 09:21:07;;;;;;;35.72;5.97;;;23.80;37.60;;;;;;5270573;28;20028;-81
2022/04/01 09:23:39;;;;;;;42.92;7.22;;;23.10;37.10;;;;;;5271673;28;20024;-82
2022/04/01 09:26:10;;;;;;;36.00;6.38;;;23.40;37.30;;;;;;5271591;28;20031;-83
2022/04/01 09:28:42;;;;;;;34.78;6.43;;;23.30;37.40;;;;;;5270105;28;20380;-81
2022/04/01 09:31:15;;;;;;;33.65;6.20;;;23.50;39.10;;;;;;5271152;28;20059;-81
2022/04/01 09:33:48;;;;;;;43.30;6.82;;;23.60;38.90;;;;;;5271225;28;20032;-80
2022/04/01 09:36:21;;;;;;;38.10;6.35;;;23.70;38.40;;;;;;5271693;28;20161;-79
2022/04/01 09:39:03;;;;;;;29.08;6.18;;;23.60;38.10;;;;;;5271456;28;20025;-80
2022/04/01 09:41:38;;;;;;;41.75;6.97;;;23.50;38.80;;;;;;5271217;28;20024;-79
2022/04/01 09:44:23;;;;;;;42.42;7.28;;;23.70;38.10;;;;;;5270011;28;20035;-80
2022/04/01 09:46:56;;;;;;;39.08;6.20;;;23.90;38.10;;;;;;5271072;28;20024;-80
2022/04/01 09:49:31;;;;;;;41.40;6.72;;;24.10;37.70;;;;;;5271100;28;20460;-80
2022/04/01 09:52:04;;;;;;;28.20;6.13;;;24.10;36.60;;;;;;5271246;28;20039;-81
2022/04/01 09:54:44;;;;;;;36.80;6.53;;;23.70;36.80;;;;;;5270898;28;20379;-81
2022/04/01 09:57:15;;;;;;;;;;;23.40;37.20;;;;;;5271231;28;20024;-80
2022/04/01 09:59:47;;;;;;;42.30;6.05;;;23.60;37.90;;;;;;5270690;28;19923;-81
2022/04/01 10:02:19;;;;;;;41.05;7.25;;;23.50;37.80;;;;;;5271050;28;20020;-82
2022/04/01 10:04:51;;;;;;;31.55;6.07;;;23.70;37.70;;;;;;5270923;28;20367;-81
2022/04/01 10:07:24;;;;;;;37.97;6.28;;;23.50;37.50;;;;;;5270940;28;20035;-81
2022/04/01 10:09:56;;;;;;;43.92;6.55;;;23.60;37.30;;;;;;5270647;28;20030;-79
2022/04/01 10:12:30;;;;;;;43.60;6.72;;;23.70;37.60;;;;;;5270481;28;20479;-81
2022/04/01 10:15:01;;;;;;;44.55;7.75;;;24.30;39.30;;;;;;5270570;28;20024;-79
2022/04/01 10:17:36;;;;;;;39.45;6.50;;;24.20;38.90;;;;;;5270477;28;20475;-79
2022/04/01 10:20:08;;;;;;;33.40;6.25;;;24.00;37.80;;;;;;5270734;28;20050;-80
2022/04/01 10:22:41;;;;;;;39.88;7.03;;;24.50;37.40;;;;;;5270573;28;20036;-79
2022/04/01 10:25:18;;;;;;;45.30;8.10;;;25.30;38.90;;;;;;5235129;28;20029;-82
2022/04/01 10:27:51;;;;;;;44.25;7.68;;;24.40;37.20;;;;;;5270310;28;20044;-80
2022/04/01 10:30:25;;;;;;;33.38;6.40;;;25.00;40.00;;;;;;5269760;28;20123;-79
2022/04/01 10:32:56;;;;;;;34.35;6.65;;;24.30;38.10;;;;;;5268880;28;20031;-80
2022/04/01 10:35:28;;;;;;;37.30;6.95;;;24.20;36.70;;;;;;5270326;28;20028;-82
2022/04/01 10:38:05;;;;;;;43.63;6.63;;;24.30;37.50;;;;;;5270285;28;20383;-81
2022/04/01 10:40:41;;;;;;;48.50;8.05;;;24.60;37.30;;;;;;5268643;28;20064;-80
2022/04/01 10:43:15;;;;;;;33.13;6.00;;;25.00;38.00;;;;;;5270161;28;20105;-83
2022/04/01 10:46:07;;;;;;;33.05;6.40;;;25.10;36.50;;;;;;5269866;28;20036;-81
2022/04/01 10:51:37;;;;;;;34.45;6.72;;;25.10;36.30;;;;;;5270415;28;20032;-81
2022/04/01 10:54:14;;;;;;;46.78;6.13;;;25.40;35.70;;;;;;5270115;28;20077;-80
2022/04/01 10:57:05;;;;;;;32.50;6.63;;;25.60;36.40;;;;;;5269688;28;20149;-79
2022/04/01 10:59:42;;;;;;;38.22;5.78;;;25.00;35.60;;;;;;5269819;28;20063;-80
2022/04/01 11:02:18;;;;;;;30.55;6.07;;;25.20;35.60;;;;;;5269183;28;20111;-81
2022/04/01 11:04:53;;;;;;;43.45;6.07;;;25.60;37.10;;;;;;5269979;28;20024;-81
2022/04/01 11:07:23;;;;;;;38.13;6.70;;;25.90;34.80;;;;;;5269561;28;20454;-80
2022/04/01 11:10:07;;;;;;;36.17;6.55;;;25.80;35.00;;;;;;5269932;28;20054;-80
2022/04/01 11:12:42;;;;;;;38.53;6.30;;;25.70;35.00;;;;;;5269610;28;20036;-80
2022/04/01 11:15:15;;;;;;;34.28;6.50;;;25.70;36.90;;;;;;5268352;28;20052;-80
2022/04/01 11:17:52;;;;;;;39.40;6.43;;;25.70;35.00;;;;;;5269360;28;20070;-80
2022/04/01 11:20:22;;;;;;;31.92;5.55;;;26.00;37.40;;;;;;5269367;28;20023;-81
2022/04/01 11:22:53;;;;;;;30.05;6.35;;;26.00;36.00;;;;;;5269515;28;20081;-82
2022/04/01 11:25:24;;;;;;;40.97;7.03;;;25.90;36.30;;;;;;5268554;28;20460;-81
2022/04/01 11:28:05;;;;;;;40.13;6.75;;;25.90;36.20;;;;;;5269358;28;20489;-79
2022/04/01 11:31:03;;;;;;;38.75;6.75;;;25.80;35.40;;;;;;5269143;28;20066;-81
2022/04/01 11:33:35;;;;;;;39.25;5.93;;;25.90;34.90;;;;;;5269400;28;20058;-80
2022/04/01 11:36:07;;;;;;;31.30;6.35;;;26.10;35.90;;;;;;5269238;28;20032;-81
2022/04/01 11:38:45;;;;;;;35.85;6.07;;;26.30;34.80;;;;;;5269094;28;20751;-80
2022/04/01 11:41:17;;;;;;;37.08;6.35;;;26.30;33.70;;;;;;5269518;28;20141;-81
2022/04/01 11:43:48;;;;;;;22.00;5.53;;;26.00;34.50;;;;;;5269208;28;20111;-81
2022/04/01 11:46:19;;;;;;;40.33;6.72;;;25.80;34.10;;;;;;5269188;28;20114;-81
2022/04/01 11:48:50;;;;;;;39.78;6.35;;;26.00;35.00;;;;;;5269475;28;20024;-80
2022/04/01 11:51:24;;;;;;;29.35;5.85;;;25.60;34.80;;;;;;5268960;28;20040;-80
2022/04/01 11:53:56;;;;;;;34.85;7.28;;;25.70;34.40;;;;;;5269013;28;20496;-80
2022/04/01 11:56:28;;;;;;;47.33;8.07;;;25.80;35.60;;;;;;5268925;28;20028;-80
2022/04/01 11:59:04;;;;;;;46.22;7.68;;;25.90;35.30;;;;;;5269083;28;20031;-80
2022/04/01 12:01:54;;;;;;;30.67;7.13;;;25.80;34.70;;;;;;5269006;28;20089;-81
2022/04/01 12:04:36;;;;;;;26.58;5.80;;;25.50;35.40;;;;;;5269149;28;20496;-80
2022/04/01 12:10:01;;;;;;;26.98;5.38;;;26.10;34.50;;;;;;5269283;28;20391;-81
2022/04/01 12:12:33;;;;;;;26.23;6.00;;;26.00;35.10;;;;;;5269031;28;20033;-80
2022/04/01 12:15:06;;;;;;;34.65;6.07;;;26.10;35.00;;;;;;5273108;28;20024;-83
2022/04/01 12:17:57;;;;;;;27.55;6.13;;;25.90;35.40;;;;;;5271927;28;20031;-81
2022/04/01 12:20:28;;;;;;;36.17;6.25;;;25.50;35.40;;;;;;5272751;28;20073;-81
2022/04/01 12:23:01;;;;;;;29.15;6.13;;;25.80;36.00;;;;;;5272980;28;20024;-81
2022/04/01 12:25:33;;;;;;;37.78;5.85;;;26.00;36.30;;;;;;5272777;28;20104;-82
2022/04/01 12:28:12;;;;;;;37.38;6.70;;;25.90;35.40;;;;;;5272613;28;20016;-82
2022/04/01 12:30:46;;;;;;;23.83;5.10;;;25.70;35.60;;;;;;5272504;28;20044;-81
2022/04/01 12:33:21;;;;;;;34.95;6.65;;;25.50;37.70;;;;;;5272603;28;20060;-83
2022/04/01 12:35:58;;;;;;;41.63;6.00;;;25.40;37.70;;;;;;5272469;28;20021;-81
2022/04/01 12:38:36;;;;;;;34.45;6.05;;;25.40;37.00;;;;;;5272487;28;20047;-81
2022/04/01 12:41:16;;;;;;;35.75;6.60;;;25.40;36.30;;;;;;5272555;28;20020;-82
2022/04/01 12:43:49;;;;;;;29.70;5.05;;;25.30;36.80;;;;;;5272890;28;20032;-80
2022/04/01 12:46:31;;;;;;;33.08;5.95;;;25.60;37.50;;;;;;5271181;28;20032;-81
2022/04/01 12:49:13;;;;;;;30.08;5.95;;;25.50;36.80;;;;;;5251602;28;20036;-82
2022/04/01 12:51:59;;;;;;;29.77;5.47;;;25.80;35.80;;;;;;5251113;28;20037;-81
2022/04/01 12:54:37;;;;;;;32.95;6.25;;;26.00;37.20;;;;;;5251460;28;20484;-81
2022/04/01 12:57:13;;;;;;;32.13;6.07;;;25.50;36.70;;;;;;5250059;28;20487;-81
2022/04/01 12:59:46;;;;;;;30.00;5.90;;;25.40;36.50;;;;;;5249797;28;20044;-81
2022/04/01 13:02:20;;;;;;;29.67;5.80;;;25.30;36.90;;;;;;5251175;28;20087;-81
2022/04/01 13:04:56;;;;;;;28.17;6.13;;;25.20;37.00;;;;;;5250976;28;20059;-81
2022/04/01 13:07:32;;;;;;;23.40;6.07;;;24.90;38.60;;;;;;5249751;28;20074;-82
2022/04/01 13:10:12;;;;;;;34.15;6.60;;;24.80;38.30;;;;;;5249656;28;20028;-81
2022/04/01 13:12:47;;;;;;;31.58;6.60;;;24.70;38.90;;;;;;5251044;28;20082;-80
2022/04/01 13:15:20;;;;;;;39.15;6.45;;;24.50;39.00;;;;;;5251342;28;20098;-81
2022/04/01 13:17:56;;;;;;;36.42;6.43;;;24.50;38.60;;;;;;5250662;28;20016;-81
2022/04/01 13:20:29;;;;;;;30.90;6.20;;;24.30;40.60;;;;;;5249450;28;20033;-80
2022/04/01 13:23:03;;;;;;;27.05;5.47;;;24.30;39.20;;;;;;5250680;28;20021;-80
2022/04/01 13:25:34;;;;;;;29.00;6.07;;;24.30;38.90;;;;;;5250473;28;20021;-81
2022/04/01 13:28:05;;;;;;;27.35;5.60;;;24.10;39.60;;;;;;5249188;28;20452;-80